Time;durP1;ratioP1;P1;durP2;ratioP2;P2;SDS_P1;SDS_P2;PMS_P1;PMS_P2;Temp;Humidity;BMP_temperature;BMP_pressure;BME280_temperature;BME280_humidity;BME280_pressure;Samples;Min_cycle;Max_cycle;Signal;HPM_P1;HPM_P2
2021/05/29 00:00:54;;;;;;;1.50;1.40;;;9.70;99.90;;;;;;5025163;28;20262;-76
2021/05/29 00:03:20;;;;;;;2.17;1.43;;;9.70;99.90;;;;;;5025262;28;20594;-76
2021/05/29 00:05:46;;;;;;;2.63;1.50;;;9.70;99.90;;;;;;5025824;28;20197;-77
2021/05/29 00:08:12;;;;;;;4.80;1.37;;;9.90;99.90;;;;;;5025794;28;20645;-76
2021/05/29 00:10:41;;;;;;;1.30;1.20;;;10.00;99.90;;;;;;5026065;28;20194;-76
2021/05/29 00:13:07;;;;;;;1.77;1.47;;;10.00;99.90;;;;;;5025153;28;20198;-77
2021/05/29 00:15:33;;;;;;;1.40;1.30;;;10.00;99.90;;;;;;5025604;28;20210;-77
2021/05/29 00:18:00;;;;;;;1.83;1.60;;;10.00;99.90;;;;;;5025419;28;20237;-77
2021/05/29 00:20:25;;;;;;;1.47;1.37;;;9.90;99.90;;;;;;5025536;28;20644;-77
2021/05/29 00:22:51;;;;;;;1.70;1.60;;;10.00;99.90;;;;;;5025025;28;20228;-77
2021/05/29 00:25:17;;;;;;;1.60;1.40;;;9.90;99.90;;;;;;5024848;28;20278;-77
2021/05/29 00:27:43;;;;;;;1.63;1.40;;;10.00;99.90;;;;;;5024811;28;20566;-76
2021/05/29 00:30:12;;;;;;;1.70;1.60;;;10.00;99.90;;;;;;5023814;28;20190;-76
2021/05/29 00:32:39;;;;;;;1.40;1.30;;;9.90;99.90;;;;;;5024556;28;20214;-76
2021/05/29 00:35:05;;;;;;;1.47;1.37;;;10.00;99.90;;;;;;5023319;28;21383;-75
2021/05/29 00:37:31;;;;;;;1.37;1.27;;;9.90;99.90;;;;;;5024303;28;20217;-76
2021/05/29 00:39:56;;;;;;;2.50;1.80;;;10.10;99.90;;;;;;5024063;28;20210;-76
2021/05/29 00:42:22;;;;;;;1.70;1.60;;;10.00;99.90;;;;;;5024880;28;20641;-76
2021/05/29 00:44:53;;;;;;;2.80;2.20;;;10.00;99.90;;;;;;5028749;28;20268;-76
2021/05/29 00:47:28;;;;;;;5.57;2.57;;;10.10;99.90;;;;;;5053088;22;20295;-67
2021/05/29 00:50:01;;;;;;;2.47;2.10;;;10.10;99.90;;;;;;5044608;28;20229;-66
2021/05/29 00:52:28;;;;;;;2.57;1.87;;;10.10;99.90;;;;;;5041930;28;20273;-65
2021/05/29 00:54:54;;;;;;;3.43;2.47;;;10.00;99.90;;;;;;5044311;28;21336;-69
2021/05/29 00:57:21;;;;;;;2.33;1.90;;;10.10;99.90;;;;;;5059342;28;20182;-66
2021/05/29 00:59:47;;;;;;;2.40;1.60;;;10.10;99.90;;;;;;5043807;28;20241;-69
2021/05/29 01:02:16;;;;;;;2.00;1.77;;;10.10;99.90;;;;;;5043961;28;20174;-66
2021/05/29 01:04:43;;;;;;;2.17;1.70;;;10.10;99.90;;;;;;5044087;28;20189;-65
2021/05/29 01:07:12;;;;;;;2.13;1.90;;;10.10;99.90;;;;;;5043843;28;20178;-65
2021/05/29 01:09:39;;;;;;;2.83;1.97;;;10.10;99.90;;;;;;5043156;28;20256;-67
2021/05/29 01:12:07;;;;;;;3.13;2.23;;;10.10;99.90;;;;;;5047599;28;21570;-66
2021/05/29 01:14:35;;;;;;;2.60;2.00;;;10.20;99.90;;;;;;5047971;28;20213;-65
2021/05/29 01:17:04;;;;;;;4.47;2.60;;;10.20;99.90;;;;;;5046781;28;20558;-66
2021/05/29 01:19:31;;;;;;;2.63;1.93;;;10.20;99.90;;;;;;5047714;28;20229;-67
2021/05/29 01:21:58;;;;;;;2.93;2.13;;;10.20;99.90;;;;;;5047289;28;20182;-65
2021/05/29 01:24:25;;;;;;;3.07;2.40;;;10.30;99.90;;;;;;5046459;28;20282;-66
2021/05/29 01:26:52;;;;;;;3.40;2.30;;;10.40;99.90;;;;;;5048048;28;20206;-65
2021/05/29 01:29:18;;;;;;;3.23;2.07;;;10.40;99.90;;;;;;5047488;28;20209;-65
2021/05/29 01:31:48;;;;;;;2.57;2.30;;;10.40;99.90;;;;;;5046885;28;20248;-68
2021/05/29 01:34:15;;;;;;;3.10;1.87;;;10.40;99.90;;;;;;5047727;28;20664;-66
2021/05/29 01:36:42;;;;;;;3.37;2.37;;;10.40;99.90;;;;;;5047423;28;20955;-67
2021/05/29 01:39:10;;;;;;;1.73;1.53;;;10.30;99.90;;;;;;5047190;28;20646;-65
2021/05/29 01:41:35;;;;;;;2.50;2.30;;;10.40;99.90;;;;;;5046850;28;20206;-67
2021/05/29 01:44:02;;;;;;;4.00;2.10;;;10.30;99.90;;;;;;5047392;28;20275;-68
2021/05/29 01:46:28;;;;;;;3.37;2.23;;;10.30;99.90;;;;;;5047379;28;20864;-66
2021/05/29 01:48:54;;;;;;;2.67;2.33;;;10.40;99.90;;;;;;5047313;28;20207;-69
2021/05/29 01:51:22;;;;;;;2.33;2.07;;;10.40;99.90;;;;;;5046382;28;20189;-68
2021/05/29 01:53:49;;;;;;;2.67;2.00;;;10.40;99.90;;;;;;5046991;28;20336;-67
2021/05/29 01:56:16;;;;;;;2.40;2.20;;;10.40;99.90;;;;;;5046821;28;20193;-67
2021/05/29 01:58:43;;;;;;;2.50;1.97;;;10.30;99.90;;;;;;5046686;28;20549;-66
2021/05/29 02:01:12;;;;;;;3.73;2.63;;;10.30;99.90;;;;;;5061924;28;20194;-65
2021/05/29 02:03:37;;;;;;;3.47;2.27;;;10.30;99.90;;;;;;5047039;28;20174;-68
2021/05/29 02:06:04;;;;;;;2.57;2.20;;;10.20;99.90;;;;;;5062025;28;20530;-65
2021/05/29 02:08:30;;;;;;;2.60;2.40;;;10.10;99.90;;;;;;5046751;28;20198;-65
2021/05/29 02:10:56;;;;;;;2.47;2.27;;;10.00;99.90;;;;;;5046325;28;20193;-66
2021/05/29 02:13:30;;;;;;;3.70;2.80;;;9.90;99.90;;;;;;5046530;28;20197;-69
2021/05/29 02:15:56;;;;;;;2.97;2.40;;;10.00;99.90;;;;;;5046571;28;20206;-68
2021/05/29 02:18:23;;;;;;;2.33;2.10;;;10.00;99.90;;;;;;5061524;28;20196;-65
2021/05/29 02:20:50;;;;;;;2.97;2.53;;;10.00;99.90;;;;;;5044371;28;20202;-67
2021/05/29 02:23:22;;;;;;;3.13;2.23;;;10.00;99.90;;;;;;5046120;28;20205;-68
2021/05/29 02:25:53;;;;;;;2.70;2.40;;;10.00;99.90;;;;;;5046619;28;20246;-66
2021/05/29 02:28:19;;;;;;;2.77;2.47;;;10.00;99.90;;;;;;5046495;28;20202;-66
2021/05/29 02:30:46;;;;;;;3.27;2.67;;;9.90;99.90;;;;;;5045671;28;20220;-67
2021/05/29 02:33:12;;;;;;;2.80;2.50;;;9.90;99.90;;;;;;5046244;28;20225;-66
2021/05/29 02:35:38;;;;;;;4.70;2.67;;;9.90;99.90;;;;;;5046491;28;20651;-66
2021/05/29 02:38:05;;;;;;;2.70;2.37;;;9.90;99.90;;;;;;5046002;28;20732;-66
2021/05/29 02:40:31;;;;;;;3.80;2.50;;;10.00;99.90;;;;;;5046397;28;20202;-64
2021/05/29 02:42:57;;;;;;;3.30;2.70;;;10.10;99.90;;;;;;5045924;28;20175;-66
2021/05/29 02:45:23;;;;;;;3.70;2.87;;;10.10;99.90;;;;;;5046217;28;20182;-68
2021/05/29 02:47:49;;;;;;;2.80;2.30;;;10.20;99.90;;;;;;5045937;28;20244;-67
2021/05/29 02:50:15;;;;;;;4.27;2.77;;;10.20;99.90;;;;;;5045947;28;20528;-68
2021/05/29 02:52:41;;;;;;;3.13;2.53;;;10.20;99.90;;;;;;5045593;28;20186;-66
2021/05/29 02:55:11;;;;;;;4.87;3.03;;;10.20;99.90;;;;;;5046069;28;20202;-67
2021/05/29 02:57:37;;;;;;;3.23;2.73;;;10.20;99.90;;;;;;5045778;28;20644;-66
2021/05/29 03:00:10;;;;;;;5.03;2.87;;;10.10;99.90;;;;;;5045869;28;20284;-69
2021/05/29 03:02:36;;;;;;;2.93;2.60;;;10.10;99.90;;;;;;5045047;28;20209;-68
2021/05/29 03:05:05;;;;;;;4.13;3.50;;;10.10;99.90;;;;;;5046318;28;20186;-66
2021/05/29 03:07:30;;;;;;;4.00;2.80;;;10.10;99.90;;;;;;5045790;28;20182;-68
2021/05/29 03:09:56;;;;;;;3.00;2.63;;;10.00;99.90;;;;;;5045540;28;20707;-68
2021/05/29 03:12:22;;;;;;;5.97;3.93;;;10.10;99.90;;;;;;5043665;28;20170;-66
2021/05/29 03:14:47;;;;;;;3.67;2.87;;;10.10;99.90;;;;;;5045383;28;20281;-67
2021/05/29 03:17:13;;;;;;;3.90;2.63;;;10.10;99.90;;;;;;5045755;28;20183;-65
2021/05/29 03:19:40;;;;;;;3.27;2.80;;;10.10;99.90;;;;;;5060430;28;20210;-67
2021/05/29 03:22:05;;;;;;;2.73;2.30;;;10.10;99.90;;;;;;5044936;28;20526;-66
2021/05/29 03:24:31;;;;;;;3.60;2.63;;;10.10;99.90;;;;;;5045613;28;20182;-69
2021/05/29 03:26:57;;;;;;;4.60;2.70;;;10.10;99.90;;;;;;5045272;28;20233;-66
2021/05/29 03:29:22;;;;;;;4.00;2.83;;;10.10;99.90;;;;;;5045142;28;20281;-66
2021/05/29 03:31:48;;;;;;;2.73;2.50;;;10.20;99.90;;;;;;5044431;28;20717;-69
2021/05/29 03:34:14;;;;;;;3.43;2.70;;;10.10;99.90;;;;;;5044234;28;20683;-65
2021/05/29 03:36:39;;;;;;;3.47;2.67;;;10.20;99.90;;;;;;5045173;28;20260;-65
2021/05/29 03:39:06;;;;;;;3.33;2.50;;;10.20;99.90;;;;;;5044947;28;20194;-67
2021/05/29 03:41:32;;;;;;;4.23;2.97;;;10.30;99.90;;;;;;5044392;28;20188;-68
2021/05/29 03:43:57;;;;;;;4.67;2.50;;;10.40;99.90;;;;;;5045508;28;20182;-66
2021/05/29 03:46:23;;;;;;;2.93;2.23;;;10.30;99.90;;;;;;5044563;28;20198;-68
2021/05/29 03:48:49;;;;;;;2.57;2.23;;;10.30;99.90;;;;;;5044733;28;20561;-64
2021/05/29 03:51:14;;;;;;;5.20;2.50;;;10.30;99.90;;;;;;5044094;28;20783;-65
2021/05/29 03:53:40;;;;;;;3.00;2.70;;;10.30;99.90;;;;;;5044903;28;20189;-65
2021/05/29 03:56:06;;;;;;;3.03;2.53;;;10.30;99.90;;;;;;5045066;28;20296;-64
2021/05/29 03:58:32;;;;;;;3.37;2.63;;;10.30;99.90;;;;;;5044410;28;20208;-65
2021/05/29 04:00:59;;;;;;;4.20;2.83;;;10.30;99.90;;;;;;5044503;28;21292;-68
2021/05/29 04:03:25;;;;;;;3.80;2.50;;;10.30;99.90;;;;;;5044793;28;20186;-67
2021/05/29 04:05:51;;;;;;;3.20;2.20;;;10.30;99.90;;;;;;5044716;28;20639;-66
2021/05/29 04:08:16;;;;;;;2.50;2.30;;;10.30;99.90;;;;;;5044729;28;20205;-65
2021/05/29 04:10:43;;;;;;;4.50;2.70;;;10.40;99.90;;;;;;5044349;28;20182;-64
2021/05/29 04:13:09;;;;;;;3.60;2.50;;;10.50;99.90;;;;;;5044811;28;20181;-67
2021/05/29 04:15:35;;;;;;;2.63;2.43;;;10.50;99.90;;;;;;5044297;28;20559;-67
2021/05/29 04:18:01;;;;;;;2.63;2.07;;;10.50;99.90;;;;;;5044331;28;20178;-66
2021/05/29 04:20:27;;;;;;;2.77;2.57;;;10.60;99.90;;;;;;5044546;28;20261;-66
2021/05/29 04:22:54;;;;;;;2.67;2.43;;;10.70;99.90;;;;;;5043902;28;20178;-66
2021/05/29 04:25:24;;;;;;;3.17;2.83;;;10.70;99.90;;;;;;5043695;28;20492;-69
2021/05/29 04:27:50;;;;;;;4.07;2.73;;;10.80;99.90;;;;;;5044428;28;20251;-65
2021/05/29 04:30:18;;;;;;;2.00;1.80;;;10.70;99.90;;;;;;5044423;28;20178;-68
2021/05/29 04:32:45;;;;;;;4.53;2.77;;;10.70;99.90;;;;;;5043691;28;20694;-66
2021/05/29 04:35:11;;;;;;;4.47;2.80;;;10.70;99.90;;;;;;5044825;28;20808;-66
2021/05/29 04:37:38;;;;;;;4.67;2.80;;;10.80;99.90;;;;;;5044120;28;20220;-67
2021/05/29 04:40:08;;;;;;;4.67;2.50;;;10.70;99.90;;;;;;5044210;28;20198;-66
2021/05/29 04:42:34;;;;;;;3.27;2.30;;;10.60;99.90;;;;;;5043629;28;20181;-64
2021/05/29 04:45:00;;;;;;;3.80;2.67;;;10.70;99.90;;;;;;5044059;28;20650;-66
2021/05/29 04:47:27;;;;;;;3.43;2.77;;;10.70;99.90;;;;;;5043992;28;20284;-65
2021/05/29 04:49:53;;;;;;;3.10;2.43;;;10.80;99.90;;;;;;5044296;28;20237;-64
2021/05/29 04:52:19;;;;;;;3.00;2.58;;;10.80;99.90;;;;;;5043519;28;20220;-65
2021/05/29 04:54:44;;;;;;;3.63;2.90;;;10.80;99.90;;;;;;5042610;28;20244;-65
2021/05/29 04:57:10;;;;;;;3.20;2.55;;;10.90;99.90;;;;;;5044306;28;20185;-66
2021/05/29 04:59:35;;;;;;;3.77;2.57;;;10.90;99.90;;;;;;5042448;28;20293;-65
2021/05/29 05:02:01;;;;;;;3.22;2.28;;;10.90;99.90;;;;;;5043461;28;20170;-65
2021/05/29 05:04:27;;;;;;;3.17;2.50;;;11.00;99.90;;;;;;5042424;28;20197;-65
2021/05/29 05:06:52;;;;;;;3.13;2.30;;;11.00;99.90;;;;;;5044162;28;20189;-68
2021/05/29 05:09:18;;;;;;;3.35;2.03;;;11.00;99.90;;;;;;5043585;28;20300;-64
2021/05/29 05:11:44;;;;;;;2.30;2.10;;;11.10;99.90;;;;;;5043453;28;20196;-65
2021/05/29 05:14:09;;;;;;;2.95;2.38;;;11.00;99.90;;;;;;5044317;28;20170;-66
2021/05/29 05:16:35;;;;;;;2.60;2.00;;;11.00;99.90;;;;;;5043962;28;20188;-64
2021/05/29 05:19:01;;;;;;;3.13;2.43;;;11.00;99.90;;;;;;5042376;28;20243;-65
2021/05/29 05:21:27;;;;;;;2.97;2.40;;;10.90;99.90;;;;;;5042030;28;20179;-65
2021/05/29 05:23:54;;;;;;;2.30;2.10;;;10.80;99.90;;;;;;5043681;28;20182;-69
2021/05/29 05:26:20;;;;;;;2.73;2.13;;;10.70;99.90;;;;;;5042286;28;20281;-67
2021/05/29 05:28:46;;;;;;;3.03;2.60;;;10.60;99.90;;;;;;5043471;28;20205;-66
2021/05/29 05:31:12;;;;;;;3.83;2.70;;;10.50;99.90;;;;;;5043096;28;20178;-65
2021/05/29 05:33:43;;;;;;;2.60;2.10;;;10.50;99.90;;;;;;5043989;28;20186;-66
2021/05/29 05:36:10;;;;;;;3.17;1.93;;;10.50;99.90;;;;;;5059083;28;20976;-64
2021/05/29 05:38:37;;;;;;;2.87;2.00;;;10.40;99.90;;;;;;5044405;28;20221;-66
2021/05/29 05:41:05;;;;;;;3.27;2.47;;;10.30;99.90;;;;;;5044946;28;20174;-67
2021/05/29 05:43:30;;;;;;;3.53;2.30;;;10.30;99.90;;;;;;5045494;28;20557;-67
2021/05/29 05:45:56;;;;;;;2.43;2.20;;;10.20;99.90;;;;;;5045747;28;20174;-67
2021/05/29 05:48:22;;;;;;;5.83;2.90;;;10.30;99.90;;;;;;5045477;28;20677;-66
2021/05/29 05:50:58;;;;;;;4.40;2.53;;;10.30;99.90;;;;;;5045247;28;20202;-67
2021/05/29 05:53:25;;;;;;;3.83;2.30;;;10.30;99.90;;;;;;5046009;28;20633;-67
2021/05/29 05:55:55;;;;;;;2.20;1.80;;;10.20;99.90;;;;;;5045318;28;20210;-67
2021/05/29 05:58:21;;;;;;;3.13;2.23;;;10.20;99.90;;;;;;5048597;28;20198;-64
2021/05/29 06:00:48;;;;;;;4.00;2.20;;;10.30;99.90;;;;;;5049253;28;20284;-67
2021/05/29 06:03:13;;;;;;;2.87;2.10;;;10.20;99.90;;;;;;5049274;28;20182;-66
2021/05/29 06:05:39;;;;;;;2.67;1.97;;;10.30;99.90;;;;;;5047500;28;20186;-65
2021/05/29 06:08:05;;;;;;;2.40;2.10;;;10.40;99.90;;;;;;5049422;28;20609;-65
2021/05/29 06:10:31;;;;;;;2.43;1.87;;;10.40;99.90;;;;;;5049234;28;20186;-67
2021/05/29 06:12:56;;;;;;;2.23;1.77;;;10.50;99.90;;;;;;5048825;28;20521;-67
2021/05/29 06:20:33;;;;;;;3.00;2.13;;;10.80;99.90;;;;;;5049204;28;20186;-68
2021/05/29 06:22:59;;;;;;;2.60;1.93;;;10.80;99.90;;;;;;5048662;28;20204;-64
2021/05/29 06:25:25;;;;;;;2.23;1.80;;;10.80;99.90;;;;;;5048941;28;20263;-64
2021/05/29 06:27:50;;;;;;;2.70;1.90;;;11.00;99.90;;;;;;5063808;28;20649;-64
2021/05/29 06:30:16;;;;;;;2.47;2.00;;;11.00;99.90;;;;;;5048478;28;20182;-67
2021/05/29 06:32:42;;;;;;;2.77;1.90;;;10.90;99.90;;;;;;5048451;28;20182;-68
2021/05/29 06:35:08;;;;;;;2.10;1.90;;;10.90;99.90;;;;;;5049163;28;20195;-67
2021/05/29 06:37:36;;;;;;;3.93;2.30;;;11.10;99.90;;;;;;5048722;28;20189;-65
2021/05/29 06:40:04;;;;;;;2.33;2.00;;;11.20;99.90;;;;;;5049022;28;20198;-63
2021/05/29 06:42:30;;;;;;;1.53;1.43;;;11.30;99.90;;;;;;5063597;28;20178;-68
2021/05/29 06:44:55;;;;;;;2.57;1.87;;;11.30;99.90;;;;;;5048313;28;20189;-69
2021/05/29 06:47:21;;;;;;;3.53;1.98;;;11.40;99.90;;;;;;5046887;28;20277;-67
2021/05/29 06:49:46;;;;;;;2.92;1.90;;;11.70;99.90;;;;;;5046701;28;20198;-68
2021/05/29 06:52:18;;;;;;;2.47;2.28;;;11.80;99.90;;;;;;5046460;28;20543;-67
2021/05/29 07:00:10;;;;;;;2.50;1.90;;;12.00;99.90;;;;;;5048152;28;20255;-68
2021/05/29 07:02:36;;;;;;;2.17;1.65;;;12.00;99.90;;;;;;5045941;28;20171;-65
2021/05/29 07:05:04;;;;;;;1.67;1.27;;;12.00;99.90;;;;;;5046423;28;20359;-70
2021/05/29 07:07:30;;;;;;;3.15;1.95;;;11.90;99.90;;;;;;5045767;28;20536;-68
2021/05/29 07:09:57;;;;;;;2.50;1.98;;;12.00;99.90;;;;;;5046327;28;20602;-68
2021/05/29 07:12:23;;;;;;;1.75;1.40;;;11.90;99.90;;;;;;5044225;28;20189;-67
2021/05/29 07:14:48;;;;;;;2.42;2.00;;;12.00;99.90;;;;;;5045625;28;20206;-66
2021/05/29 07:17:15;;;;;;;3.05;1.40;;;12.00;99.90;;;;;;5045599;28;20269;-68
2021/05/29 07:19:40;;;;;;;2.00;1.40;;;12.10;99.90;;;;;;5045761;28;20264;-65
2021/05/29 07:22:06;;;;;;;2.15;1.70;;;12.20;99.90;;;;;;5045101;28;20183;-66
2021/05/29 07:24:33;;;;;;;1.42;1.33;;;12.10;99.90;;;;;;5045458;28;20570;-67
2021/05/29 07:26:59;;;;;;;1.85;1.55;;;12.20;99.90;;;;;;5045529;28;20178;-66
2021/05/29 07:29:27;;;;;;;2.03;1.58;;;12.10;99.90;;;;;;5045408;28;20281;-67
2021/05/29 07:31:53;;;;;;;2.67;1.63;;;11.90;99.90;;;;;;5044882;28;20551;-64
2021/05/29 07:34:18;;;;;;;2.75;1.88;;;12.10;99.90;;;;;;5045120;28;20189;-66
2021/05/29 07:36:44;;;;;;;3.15;1.55;;;12.20;99.90;;;;;;5045332;28;20512;-67
2021/05/29 07:39:10;;;;;;;2.05;1.55;;;12.40;99.90;;;;;;5045085;28;20198;-68
2021/05/29 07:41:37;;;;;;;2.03;1.60;;;12.50;99.90;;;;;;5043997;28;20182;-66
2021/05/29 07:44:05;;;;;;;3.15;2.30;;;12.60;99.90;;;;;;5045332;28;20579;-69
2021/05/29 07:46:31;;;;;;;1.40;1.30;;;12.80;99.90;;;;;;5044834;28;20312;-68
2021/05/29 07:48:57;;;;;;;3.10;2.10;;;12.80;99.90;;;;;;5044698;28;20669;-65
2021/05/29 07:51:22;;;;;;;1.85;1.63;;;12.80;99.90;;;;;;5044283;28;20198;-64
2021/05/29 07:53:48;;;;;;;3.28;2.00;;;12.60;99.90;;;;;;5057474;28;20708;-66
2021/05/29 07:56:19;;;;;;;3.80;1.80;;;12.60;99.90;;;;;;5042108;28;20205;-65
2021/05/29 07:58:47;;;;;;;2.47;1.63;;;12.70;99.90;;;;;;5035157;28;20194;-67
2021/05/29 08:01:13;;;;;;;2.88;2.03;;;12.70;99.90;;;;;;5043548;28;20228;-64
2021/05/29 08:03:39;;;;;;;2.97;1.77;;;12.80;99.90;;;;;;5043933;28;20190;-67
2021/05/29 08:06:13;;;;;;;2.33;1.90;;;12.80;99.90;;;;;;5044252;28;20262;-69
2021/05/29 08:08:39;;;;;;;2.08;1.48;;;12.80;99.90;;;;;;5042193;28;20214;-67
2021/05/29 08:11:05;;;;;;;3.53;1.70;;;12.80;99.90;;;;;;5042219;28;20694;-68
2021/05/29 08:13:31;;;;;;;1.40;1.25;;;12.70;99.90;;;;;;5043980;28;21147;-65
2021/05/29 08:15:57;;;;;;;2.17;1.67;;;12.70;99.90;;;;;;5044039;28;20206;-68
2021/05/29 08:18:23;;;;;;;4.38;2.15;;;12.80;99.90;;;;;;5043933;28;20192;-66
2021/05/29 08:20:50;;;;;;;1.92;1.40;;;12.80;99.90;;;;;;5043026;28;20213;-69
2021/05/29 08:23:17;;;;;;;2.10;1.58;;;12.90;99.90;;;;;;5043987;28;20682;-65
2021/05/29 08:25:43;;;;;;;2.30;1.75;;;13.00;99.90;;;;;;5043888;28;20186;-67
2021/05/29 08:28:09;;;;;;;1.83;1.52;;;12.90;99.90;;;;;;5043964;28;20210;-70
2021/05/29 08:30:35;;;;;;;2.08;1.70;;;12.90;99.90;;;;;;5045047;28;20213;-67
2021/05/29 08:33:01;;;;;;;3.20;1.80;;;13.00;99.90;;;;;;5043721;28;20265;-65
2021/05/29 08:35:27;;;;;;;1.98;1.15;;;13.10;99.90;;;;;;5043874;28;20313;-67
2021/05/29 08:37:53;;;;;;;2.10;1.90;;;13.00;99.90;;;;;;5045083;28;20273;-65
2021/05/29 08:40:20;;;;;;;1.73;1.42;;;13.00;99.90;;;;;;5044300;28;20223;-69
2021/05/29 08:42:47;;;;;;;1.60;1.45;;;13.00;99.90;;;;;;5043709;28;20174;-66
2021/05/29 08:45:16;;;;;;;2.13;1.80;;;13.00;99.90;;;;;;5044141;28;20181;-69
2021/05/29 08:47:41;;;;;;;3.40;2.10;;;13.10;99.90;;;;;;5044234;28;20198;-66
2021/05/29 08:50:10;;;;;;;2.17;1.75;;;13.00;99.90;;;;;;5044044;28;20664;-66
2021/05/29 08:52:37;;;;;;;3.15;2.83;;;13.00;99.90;;;;;;5044258;28;20183;-68
2021/05/29 08:55:04;;;;;;;2.53;2.22;;;13.00;99.90;;;;;;5044417;28;20194;-63
2021/05/29 08:57:30;;;;;;;3.70;2.40;;;13.00;99.90;;;;;;5044750;28;20532;-69
2021/05/29 08:59:56;;;;;;;3.05;1.70;;;13.30;99.90;;;;;;5044758;28;20201;-69
2021/05/29 09:02:21;;;;;;;3.75;2.00;;;13.40;99.90;;;;;;5043734;28;20512;-66
2021/05/29 09:05:03;;;;;;;4.40;2.05;;;13.50;99.90;;;;;;5043376;28;20187;-68
2021/05/29 09:07:28;;;;;;;5.38;2.42;;;13.60;99.90;;;;;;5044641;28;20202;-64
2021/05/29 09:10:20;;;;;;;3.70;2.22;;;13.60;99.90;;;;;;5058991;28;20551;-68
2021/05/29 09:13:05;;;;;;;1.83;1.60;;;13.60;99.90;;;;;;5042585;28;20200;-69
2021/05/29 09:15:41;;;;;;;4.50;2.15;;;13.60;99.90;;;;;;5043423;28;20252;-67
2021/05/29 09:18:07;;;;;;;4.45;3.00;;;13.60;99.90;;;;;;5058871;28;20753;-66
2021/05/29 09:20:33;;;;;;;2.67;2.10;;;13.60;99.90;;;;;;5043738;28;20289;-68
2021/05/29 09:23:02;;;;;;;3.30;1.95;;;13.70;99.90;;;;;;5044129;28;20166;-65
2021/05/29 09:25:32;;;;;;;2.47;1.83;;;13.90;99.90;;;;;;5044219;28;20174;-64
2021/05/29 09:28:05;;;;;;;5.88;2.72;;;14.10;99.90;;;;;;5044279;28;20189;-66
2021/05/29 09:30:41;;;;;;;2.67;1.92;;;14.30;99.90;;;;;;5045424;28;20216;-64
2021/05/29 09:33:16;;;;;;;6.85;2.85;;;14.20;99.90;;;;;;5050897;28;20189;-69
2021/05/29 09:35:45;;;;;;;3.85;2.17;;;14.20;99.90;;;;;;5049833;28;20197;-67
2021/05/29 09:38:11;;;;;;;6.13;2.35;;;14.30;99.90;;;;;;5048326;28;21106;-69
2021/05/29 09:40:37;;;;;;;2.63;2.03;;;14.40;99.90;;;;;;5049044;28;20238;-68
2021/05/29 09:43:07;;;;;;;2.42;1.95;;;14.50;99.90;;;;;;5046720;28;20641;-66
2021/05/29 09:45:34;;;;;;;3.10;2.38;;;14.60;99.90;;;;;;5050800;28;20206;-65
2021/05/29 09:48:10;;;;;;;2.40;2.20;;;14.60;99.90;;;;;;5050030;28;20205;-65
2021/05/29 09:50:37;;;;;;;2.05;1.73;;;14.60;99.90;;;;;;5050175;28;20659;-66
2021/05/29 09:53:03;;;;;;;2.47;1.85;;;14.40;99.90;;;;;;5050611;28;20232;-66
2021/05/29 09:55:38;;;;;;;2.97;2.55;;;14.40;99.90;;;;;;5050072;28;20298;-70
2021/05/29 09:58:04;;;;;;;4.30;3.00;;;14.50;99.90;;;;;;5050109;28;20169;-70
2021/05/29 10:00:44;;;;;;;2.08;1.88;;;14.50;99.90;;;;;;5050775;28;20530;-66
2021/05/29 10:03:10;;;;;;;4.03;2.30;;;14.40;99.90;;;;;;5065702;28;20174;-67
2021/05/29 10:05:37;;;;;;;1.98;1.80;;;14.50;99.90;;;;;;5050535;28;20201;-68
2021/05/29 10:08:04;;;;;;;2.58;1.75;;;14.50;99.90;;;;;;5050364;28;20175;-71
2021/05/29 10:10:32;;;;;;;2.85;2.00;;;14.60;99.90;;;;;;5049800;28;20201;-68
2021/05/29 10:13:00;;;;;;;1.98;1.30;;;14.80;99.90;;;;;;5048603;28;20243;-68
2021/05/29 10:15:25;;;;;;;3.35;2.00;;;14.60;99.90;;;;;;5048339;28;20243;-68
2021/05/29 10:17:54;;;;;;;3.20;2.00;;;14.60;99.90;;;;;;5047911;28;20190;-70
2021/05/29 10:20:20;;;;;;;2.50;1.85;;;14.20;99.90;;;;;;5064460;28;20260;-68
2021/05/29 10:22:45;;;;;;;2.88;2.05;;;13.80;99.90;;;;;;5064704;28;20627;-68
2021/05/29 10:25:14;;;;;;;3.55;2.33;;;13.60;99.90;;;;;;5050079;28;20228;-67
2021/05/29 10:27:47;;;;;;;3.70;1.80;;;13.50;99.90;;;;;;5049209;28;20291;-66
2021/05/29 10:30:14;;;;;;;2.33;1.95;;;13.60;99.90;;;;;;5046708;28;20626;-65
2021/05/29 10:32:40;;;;;;;2.97;2.28;;;13.80;99.90;;;;;;5047008;28;20178;-69
2021/05/29 10:35:10;;;;;;;2.97;1.90;;;13.90;99.90;;;;;;5047660;28;20576;-71
2021/05/29 10:37:44;;;;;;;3.30;2.28;;;13.90;99.90;;;;;;5060874;28;20174;-69
2021/05/29 10:40:23;;;;;;;3.67;1.85;;;13.80;99.90;;;;;;5061100;28;20523;-67
2021/05/29 10:43:07;;;;;;;2.35;1.95;;;13.60;99.90;;;;;;5044877;28;20170;-69
2021/05/29 10:45:36;;;;;;;2.97;2.10;;;13.60;99.90;;;;;;5061297;28;20193;-69
2021/05/29 10:48:13;;;;;;;2.65;2.05;;;13.80;99.90;;;;;;5045738;28;20251;-66
2021/05/29 10:50:58;;;;;;;2.50;1.98;;;14.00;99.90;;;;;;5045956;28;20232;-67
2021/05/29 10:53:52;;;;;;;3.15;2.25;;;14.00;99.90;;;;;;5045775;28;20182;-66
2021/05/29 10:56:21;;;;;;;2.25;1.85;;;13.80;99.90;;;;;;5045652;28;20292;-68
2021/05/29 10:59:18;;;;;;;2.20;1.70;;;13.90;99.90;;;;;;5045719;28;20304;-68
2021/05/29 11:01:48;;;;;;;3.67;2.25;;;14.10;99.90;;;;;;5045422;28;20175;-66
2021/05/29 11:04:17;;;;;;;3.20;2.22;;;14.20;99.90;;;;;;5045865;28;20185;-68
2021/05/29 11:06:54;;;;;;;2.70;2.00;;;14.50;99.90;;;;;;5045850;28;20173;-68
2021/05/29 11:09:32;;;;;;;2.25;1.80;;;14.70;99.90;;;;;;5060888;28;20209;-66
2021/05/29 11:11:59;;;;;;;3.67;2.25;;;14.80;99.90;;;;;;5044919;28;20260;-67
2021/05/29 11:14:49;;;;;;;4.57;2.83;;;14.40;99.90;;;;;;5045651;28;20187;-66
2021/05/29 11:17:33;;;;;;;3.55;1.95;;;14.40;99.90;;;;;;5045213;28;20198;-67
2021/05/29 11:20:05;;;;;;;2.42;1.90;;;14.20;99.90;;;;;;5045418;28;20209;-68
2021/05/29 11:22:49;;;;;;;2.47;1.83;;;14.20;99.90;;;;;;5045085;28;20190;-69
2021/05/29 11:25:18;;;;;;;1.98;1.65;;;14.60;99.90;;;;;;5045345;28;20186;-68
2021/05/29 11:27:45;;;;;;;2.97;2.03;;;14.50;99.90;;;;;;5045034;28;20228;-67
2021/05/29 11:30:22;;;;;;;2.90;2.17;;;14.70;99.90;;;;;;5045171;28;20712;-69
2021/05/29 11:33:03;;;;;;;2.88;2.13;;;15.10;99.90;;;;;;5044543;28;20217;-67
2021/05/29 11:35:41;;;;;;;2.58;2.08;;;15.30;99.90;;;;;;5043967;28;20546;-67
2021/05/29 11:41:09;;;;;;;3.05;1.88;;;15.30;99.90;;;;;;5044676;28;20166;-67
2021/05/29 11:43:37;;;;;;;2.97;2.30;;;14.80;99.90;;;;;;5044902;28;20186;-68
2021/05/29 11:46:12;;;;;;;2.50;2.30;;;14.80;99.90;;;;;;5045101;28;20652;-68
2021/05/29 11:48:39;;;;;;;3.42;2.42;;;14.90;99.90;;;;;;5044569;28;20213;-71
2021/05/29 11:51:15;;;;;;;2.85;1.92;;;14.90;99.90;;;;;;5044714;28;20556;-69
2021/05/29 11:54:05;;;;;;;3.22;2.22;;;14.90;99.90;;;;;;5044344;28;20638;-66
2021/05/29 11:56:33;;;;;;;2.97;2.30;;;14.90;99.90;;;;;;5044499;28;20886;-66
2021/05/29 11:58:59;;;;;;;2.80;2.20;;;14.90;99.90;;;;;;5044886;28;20228;-68
2021/05/29 12:01:36;;;;;;;2.92;2.00;;;14.80;99.90;;;;;;5044408;28;20190;-67
2021/05/29 12:04:04;;;;;;;4.35;1.95;;;14.80;99.90;;;;;;5045083;28;20173;-70
2021/05/29 12:06:39;;;;;;;4.35;2.17;;;14.70;99.90;;;;;;5044633;28;20273;-70
2021/05/29 12:09:13;;;;;;;3.53;2.42;;;14.60;99.90;;;;;;5044778;28;20240;-68
2021/05/29 12:11:49;;;;;;;3.72;2.72;;;14.60;99.90;;;;;;5044177;28;20182;-69
2021/05/29 12:14:17;;;;;;;4.53;2.58;;;14.70;99.90;;;;;;5045153;28;20248;-67
2021/05/29 12:17:06;;;;;;;4.10;2.55;;;14.80;99.90;;;;;;5045212;28;20647;-68
2021/05/29 12:19:44;;;;;;;3.05;2.10;;;15.00;99.90;;;;;;5044558;28;20204;-66
2021/05/29 12:22:13;;;;;;;3.78;2.20;;;15.00;99.90;;;;;;5044346;28;20186;-65
2021/05/29 12:24:39;;;;;;;4.00;2.28;;;15.00;99.90;;;;;;5044918;28;20189;-66
2021/05/29 12:27:06;;;;;;;3.40;2.60;;;15.20;99.90;;;;;;5044887;28;20174;-68
2021/05/29 12:29:32;;;;;;;2.60;2.08;;;15.00;99.90;;;;;;5044815;28;20194;-69
2021/05/29 12:31:59;;;;;;;2.53;2.00;;;14.90;99.90;;;;;;5043850;28;20177;-64
2021/05/29 12:34:27;;;;;;;3.85;2.33;;;14.90;99.90;;;;;;5044583;28;20667;-67
2021/05/29 12:37:03;;;;;;;3.05;2.15;;;15.10;99.90;;;;;;5044883;28;20181;-63
2021/05/29 12:40:12;;;;;;;3.60;2.63;;;15.30;99.90;;;;;;5043747;28;20205;-69
2021/05/29 12:42:40;;;;;;;3.38;2.08;;;15.50;99.90;;;;;;4960430;28;20184;-68
2021/05/29 12:45:15;;;;;;;2.67;2.15;;;15.50;99.90;;;;;;5036051;28;20305;-67
2021/05/29 12:47:53;;;;;;;3.70;2.42;;;15.40;99.90;;;;;;5043656;28;20259;-66
2021/05/29 12:50:19;;;;;;;2.67;2.03;;;15.40;99.90;;;;;;5059991;28;20178;-67
2021/05/29 12:52:45;;;;;;;2.65;2.25;;;15.40;99.90;;;;;;5043687;28;20178;-67
2021/05/29 12:55:27;;;;;;;4.30;2.05;;;15.50;99.90;;;;;;5044370;28;20259;-67
2021/05/29 12:57:53;;;;;;;3.33;2.35;;;15.50;99.90;;;;;;5042491;28;20537;-65
2021/05/29 13:00:26;;;;;;;4.07;2.13;;;15.50;99.90;;;;;;5044458;28;20176;-67
2021/05/29 13:09:23;;;;;;;3.88;2.22;;;15.30;99.90;;;;;;5047887;28;20208;-69
2021/05/29 13:11:49;;;;;;;3.45;2.40;;;15.30;99.90;;;;;;5047380;28;20174;-69
2021/05/29 13:14:30;;;;;;;3.40;2.42;;;15.30;99.90;;;;;;5048346;28;20589;-66